createdAt,value
2023-04-02T00:01:55.242Z,0.62
2023-04-02T00:04:21.899Z,0.79
2023-04-02T00:06:48.954Z,0.88
2023-04-02T00:09:15.121Z,0.92
2023-04-02T00:11:41.948Z,0.93
2023-04-02T00:14:17.452Z,0.83
2023-04-02T00:16:43.799Z,0.73
2023-04-02T00:19:14.778Z,0.80
2023-04-02T00:21:41.001Z,0.73
2023-04-02T00:24:10.581Z,0.77
2023-04-02T00:26:40.401Z,0.81
2023-04-02T00:29:06.687Z,1.00
2023-04-02T00:31:33.201Z,1.02
2023-04-02T00:33:59.544Z,1.04
2023-04-02T00:36:25.879Z,1.03
2023-04-02T00:38:52.092Z,0.95
2023-04-02T00:41:20.692Z,0.96
2023-04-02T00:43:46.941Z,0.98
2023-04-02T00:46:16.949Z,1.07
2023-04-02T00:48:43.099Z,1.08
2023-04-02T00:51:12.203Z,1.00
2023-04-02T00:53:38.426Z,1.01
2023-04-02T00:56:04.699Z,1.05
2023-04-02T00:58:34.437Z,1.08
2023-04-02T01:01:00.834Z,1.23
2023-04-02T01:03:28.269Z,1.27
2023-04-02T01:06:02.251Z,1.32
2023-04-02T01:08:37.575Z,1.37
2023-04-02T01:11:22.382Z,1.30
2023-04-02T01:13:51.366Z,1.35
2023-04-02T01:16:32.587Z,1.37
2023-04-02T01:19:06.718Z,1.41
2023-04-02T01:21:32.875Z,1.42
2023-04-02T01:24:02.810Z,1.33
2023-04-02T01:26:47.811Z,1.32
2023-04-02T01:29:20.564Z,1.32
2023-04-02T01:31:46.876Z,1.34
2023-04-02T01:34:14.306Z,1.37
2023-04-02T01:37:01.946Z,1.46
2023-04-02T01:39:35.009Z,1.48
2023-04-02T01:42:15.941Z,1.42
2023-04-02T01:44:51.923Z,1.45
2023-04-02T01:47:19.458Z,1.40
2023-04-02T01:49:45.689Z,1.60
2023-04-02T01:52:18.926Z,1.53
2023-04-02T01:54:45.447Z,1.51
2023-04-02T01:57:11.667Z,1.56
2023-04-02T01:59:37.943Z,1.57
2023-04-02T02:02:04.603Z,1.64
2023-04-02T02:04:30.913Z,1.60
2023-04-02T02:06:57.774Z,1.59
2023-04-02T02:09:25.324Z,1.76
2023-04-02T02:11:51.539Z,1.77
2023-04-02T02:14:18.808Z,1.77
2023-04-02T02:16:45.685Z,1.95
2023-04-02T02:19:19.897Z,1.96
2023-04-02T02:21:47.188Z,2.09
2023-04-02T02:24:16.402Z,2.00
2023-04-02T02:26:42.601Z,1.95
2023-04-02T02:29:09.971Z,1.87
2023-04-02T02:31:36.186Z,1.96
2023-04-02T02:34:03.144Z,1.98
2023-04-02T02:36:39.238Z,1.96
2023-04-02T02:39:15.977Z,1.95
2023-04-02T02:41:42.136Z,1.93
2023-04-02T02:44:08.311Z,2.09
2023-04-02T02:46:35.039Z,2.07
2023-04-02T02:49:01.644Z,2.05
2023-04-02T02:51:28.860Z,2.01
2023-04-02T02:53:56.098Z,2.01
2023-04-02T02:56:22.305Z,2.01
2023-04-02T02:58:48.532Z,2.05
2023-04-02T03:01:14.745Z,2.05
2023-04-02T03:03:41.094Z,2.08
2023-04-02T03:06:08.745Z,2.04
2023-04-02T03:08:36.332Z,1.99
2023-04-02T03:11:05.241Z,2.00
2023-04-02T03:13:32.085Z,1.95
2023-04-02T03:15:58.624Z,1.88
2023-04-02T03:18:42.224Z,1.88
2023-04-02T03:21:28.278Z,1.94
2023-04-02T03:23:59.243Z,1.93
2023-04-02T03:26:37.586Z,2.04
2023-04-02T03:29:14.997Z,2.13
2023-04-02T03:31:53.627Z,2.05
2023-04-02T03:34:24.608Z,2.11
2023-04-02T03:37:09.671Z,2.22
2023-04-02T03:39:46.580Z,2.26
2023-04-02T03:42:15.067Z,2.22
2023-04-02T03:44:45.916Z,2.23
2023-04-02T03:47:13.860Z,2.21
2023-04-02T03:49:41.400Z,2.21
2023-04-02T03:52:11.695Z,2.16
2023-04-02T03:54:38.348Z,2.19
2023-04-02T03:57:04.707Z,2.24
2023-04-02T03:59:33.926Z,2.26
2023-04-02T04:02:01.076Z,2.17
2023-04-02T04:04:27.967Z,2.10
2023-04-02T04:06:54.198Z,2.24
2023-04-02T04:09:23.152Z,2.24
2023-04-02T04:11:49.986Z,2.11
2023-04-02T04:14:20.277Z,2.11
2023-04-02T04:16:51.644Z,2.04
2023-04-02T04:19:25.243Z,2.09
2023-04-02T04:21:51.471Z,2.08
2023-04-02T04:24:18.785Z,2.14
2023-04-02T04:26:52.003Z,2.09
2023-04-02T04:29:37.194Z,2.17
2023-04-02T04:32:22.197Z,2.17
2023-04-02T04:34:48.414Z,2.14
2023-04-02T04:37:17.228Z,2.22
2023-04-02T04:39:44.745Z,2.16
2023-04-02T04:42:17.311Z,2.15
2023-04-02T04:44:45.550Z,2.21
2023-04-02T04:47:13.581Z,2.21
2023-04-02T04:50:00.051Z,2.26
2023-04-02T04:52:29.651Z,2.29
2023-04-02T04:54:55.865Z,2.29
2023-04-02T04:57:32.194Z,2.29
2023-04-02T05:00:00.846Z,2.32
2023-04-02T05:02:31.664Z,2.25
2023-04-02T05:04:58.317Z,2.19
2023-04-02T05:07:28.667Z,2.22
2023-04-02T05:10:00.127Z,2.27
2023-04-02T05:12:31.713Z,2.17
2023-04-02T05:14:58.493Z,2.24
2023-04-02T05:17:35.358Z,2.30
2023-04-02T05:20:07.878Z,2.34
2023-04-02T05:22:35.957Z,2.40
2023-04-02T05:25:09.057Z,2.32
2023-04-02T05:27:53.937Z,2.41
2023-04-02T05:30:32.517Z,2.35
2023-04-02T05:33:25.193Z,2.44
2023-04-02T05:35:53.407Z,2.57
2023-04-02T05:38:23.675Z,2.51
2023-04-02T05:40:55.856Z,2.55
2023-04-02T05:43:22.764Z,2.53
2023-04-02T05:45:52.324Z,2.56
2023-04-02T05:48:22.555Z,2.56
2023-04-02T05:50:51.598Z,2.66
2023-04-02T05:53:19.390Z,2.71
2023-04-02T05:56:09.516Z,2.72
2023-04-02T05:58:59.216Z,2.85
2023-04-02T06:01:34.611Z,2.97
2023-04-02T06:04:03.619Z,2.90
2023-04-02T06:06:39.121Z,2.94
2023-04-02T06:09:33.227Z,2.97
2023-04-02T06:12:02.503Z,3.07
2023-04-02T06:14:34.057Z,3.07
2023-04-02T06:17:12.611Z,3.01
2023-04-02T06:19:39.104Z,3.04
2023-04-02T06:22:14.424Z,3.14
2023-04-02T06:24:40.820Z,3.20
2023-04-02T06:27:07.079Z,3.31
2023-04-02T06:29:33.914Z,3.41
2023-04-02T06:32:00.897Z,3.44
2023-04-02T06:34:27.901Z,3.50
2023-04-02T06:39:44.477Z,3.40
2023-04-02T06:42:33.110Z,3.36
2023-04-02T06:44:59.307Z,3.44
2023-04-02T06:47:39.848Z,3.42
2023-04-02T06:50:26.601Z,3.40
2023-04-02T06:52:53.720Z,3.46
2023-04-02T06:55:26.674Z,3.66
2023-04-02T06:57:53.179Z,3.76
2023-04-02T07:00:33.186Z,4.05
2023-04-02T07:03:02.287Z,3.88
2023-04-02T07:05:28.818Z,3.74
2023-04-02T07:07:55.145Z,3.76
2023-04-02T07:10:21.936Z,3.75
2023-04-02T07:12:48.163Z,3.67
2023-04-02T07:15:20.463Z,3.79
2023-04-02T07:17:46.958Z,3.67
2023-04-02T07:20:33.016Z,3.81
2023-04-02T07:22:59.364Z,3.67
2023-04-02T07:25:26.191Z,3.97
2023-04-02T07:27:52.630Z,4.82
2023-04-02T07:30:18.965Z,5.24
2023-04-02T07:32:48.845Z,5.48
2023-04-02T07:35:15.266Z,5.57
2023-04-02T07:37:44.518Z,5.49
2023-04-02T07:40:17.864Z,6.00
2023-04-02T07:42:44.428Z,5.59
2023-04-02T07:45:10.762Z,5.26
2023-04-02T07:47:37.211Z,5.62
2023-04-02T07:50:03.825Z,5.13
2023-04-02T07:52:30.122Z,5.40
2023-04-02T07:54:57.716Z,6.22
2023-04-02T07:57:23.981Z,6.56
2023-04-02T07:59:50.295Z,6.20
2023-04-02T08:02:20.036Z,6.62
2023-04-02T08:04:46.300Z,6.71
2023-04-02T08:07:12.509Z,6.75
2023-04-02T08:09:38.753Z,6.14
2023-04-02T08:12:05.009Z,5.53
2023-04-02T08:14:31.224Z,4.87
2023-04-02T08:16:57.735Z,4.55
2023-04-02T08:19:23.984Z,4.79
2023-04-02T08:21:50.223Z,4.30
2023-04-02T08:24:16.636Z,4.30
2023-04-02T08:26:45.422Z,5.45
2023-04-02T08:29:11.756Z,6.32
2023-04-02T08:31:37.978Z,6.48
2023-04-02T08:34:04.342Z,6.41
2023-04-02T08:36:31.570Z,6.22
2023-04-02T08:38:57.787Z,6.32
2023-04-02T08:41:24.565Z,6.82
2023-04-02T08:44:11.504Z,6.95
2023-04-02T08:46:45.485Z,6.85
2023-04-02T08:49:12.819Z,6.58
2023-04-02T08:51:39.035Z,6.40
2023-04-02T08:54:25.531Z,6.78
2023-04-02T08:56:52.652Z,6.25
2023-04-02T08:59:30.836Z,6.32
2023-04-02T09:02:02.316Z,6.63
2023-04-02T09:04:28.674Z,6.96
2023-04-02T09:06:55.303Z,7.43
2023-04-02T09:09:21.632Z,7.59
2023-04-02T09:11:52.905Z,7.44
2023-04-02T09:14:20.009Z,7.23
2023-04-02T09:16:47.757Z,6.99
2023-04-02T09:19:14.715Z,7.68
2023-04-02T09:21:41.774Z,7.84
2023-04-02T09:24:11.027Z,7.35
2023-04-02T09:26:37.234Z,7.05
2023-04-02T09:29:16.626Z,6.73
2023-04-02T09:32:01.617Z,6.49
2023-04-02T09:34:31.542Z,5.88
2023-04-02T09:36:59.992Z,5.75
2023-04-02T09:39:26.235Z,5.84
2023-04-02T09:42:02.789Z,6.06
2023-04-02T09:44:31.536Z,5.81
2023-04-02T09:46:57.786Z,5.86
2023-04-02T09:49:24.584Z,6.28
2023-04-02T09:52:09.076Z,6.46
2023-04-02T09:54:35.299Z,6.40
2023-04-02T09:57:02.312Z,5.83
2023-04-02T09:59:28.549Z,5.78
2023-04-02T10:01:54.749Z,6.42
2023-04-02T10:04:39.651Z,6.46
2023-04-02T10:07:05.891Z,6.87
2023-04-02T10:09:33.058Z,7.72
2023-04-02T10:12:03.175Z,6.99
2023-04-02T10:14:36.982Z,6.52
2023-04-02T10:17:12.642Z,6.91
2023-04-02T10:19:40.146Z,6.19
2023-04-02T10:22:24.505Z,6.02
2023-04-02T10:24:50.800Z,5.84
2023-04-02T10:27:16.974Z,6.30
2023-04-02T10:29:49.286Z,7.46
2023-04-02T10:32:41.889Z,7.39
2023-04-02T10:35:08.305Z,7.44
2023-04-02T10:37:46.509Z,7.36
2023-04-02T10:40:25.304Z,7.42
2023-04-02T10:42:54.192Z,6.97
2023-04-02T10:45:28.294Z,7.40
2023-04-02T10:47:59.733Z,7.63
2023-04-02T10:50:38.125Z,8.12
2023-04-02T10:53:07.388Z,8.66
2023-04-02T10:55:34.054Z,8.32
2023-04-02T10:58:03.102Z,7.88
2023-04-02T11:00:30.903Z,7.69
2023-04-02T11:03:02.337Z,7.04
2023-04-02T11:05:36.160Z,7.28
2023-04-02T11:08:32.105Z,7.34
2023-04-02T11:11:04.558Z,6.99
2023-04-02T11:13:30.982Z,6.69
2023-04-02T11:15:57.261Z,6.83
2023-04-02T11:18:24.535Z,6.83
2023-04-02T11:20:57.850Z,7.60
2023-04-02T11:23:31.504Z,7.88
2023-04-02T11:29:09.287Z,6.85
2023-04-02T11:31:35.975Z,6.57
2023-04-02T11:34:02.208Z,7.18
2023-04-02T11:36:47.098Z,7.15
2023-04-02T11:39:17.340Z,6.75
2023-04-02T11:42:02.831Z,6.72
2023-04-02T11:44:29.042Z,7.30
2023-04-02T11:47:13.911Z,7.67
2023-04-02T11:49:40.355Z,8.22
2023-04-02T11:52:19.161Z,7.88
2023-04-02T11:54:45.370Z,7.84
2023-04-02T11:57:14.612Z,7.50
2023-04-02T11:59:45.375Z,7.35
2023-04-02T12:02:28.297Z,7.11
2023-04-02T12:05:07.799Z,7.98
2023-04-02T12:07:37.863Z,6.98
2023-04-02T12:10:17.215Z,6.79
2023-04-02T12:12:43.436Z,7.59
2023-04-02T12:15:28.096Z,8.05
2023-04-02T12:18:02.319Z,7.77
2023-04-02T12:20:28.556Z,7.73
2023-04-02T12:22:54.849Z,7.69
2023-04-02T12:25:22.879Z,7.82
2023-04-02T12:27:49.095Z,7.81
2023-04-02T12:30:19.586Z,7.68
2023-04-02T12:32:45.875Z,7.56
2023-04-02T12:35:24.864Z,7.69
2023-04-02T12:37:52.223Z,8.48
2023-04-02T12:40:18.560Z,8.74
2023-04-02T12:42:44.783Z,8.63
2023-04-02T12:45:21.025Z,9.37
2023-04-02T12:47:47.298Z,8.72
2023-04-02T12:50:13.580Z,7.97
2023-04-02T12:52:42.803Z,8.51
2023-04-02T12:55:15.371Z,8.56
2023-04-02T12:57:41.696Z,8.20
2023-04-02T13:00:20.088Z,7.90
2023-04-02T13:02:47.607Z,8.32
2023-04-02T13:05:13.864Z,8.72
2023-04-02T13:07:40.092Z,8.24
2023-04-02T13:10:21.437Z,8.71
2023-04-02T13:12:47.662Z,8.39
2023-04-02T13:15:26.581Z,7.57
2023-04-02T13:18:11.964Z,7.28
2023-04-02T13:20:38.914Z,7.64
2023-04-02T13:23:24.206Z,7.69
2023-04-02T13:25:50.440Z,8.22
2023-04-02T13:28:16.664Z,7.89
2023-04-02T13:30:42.907Z,7.04
2023-04-02T13:33:09.146Z,6.89
2023-04-02T13:35:37.233Z,7.19
2023-04-02T13:38:03.572Z,7.90
2023-04-02T13:40:29.802Z,7.96
2023-04-02T13:42:56.009Z,7.29
2023-04-02T13:45:22.239Z,6.96
2023-04-02T13:47:48.515Z,6.76
2023-04-02T13:50:18.827Z,6.72
2023-04-02T13:52:45.060Z,7.20
2023-04-02T13:55:11.266Z,7.33
2023-04-02T13:57:37.529Z,7.22
2023-04-02T14:00:04.219Z,7.20
2023-04-02T14:02:30.454Z,7.13
2023-04-02T14:05:03.542Z,7.33
2023-04-02T14:07:29.718Z,7.08
2023-04-02T14:10:09.325Z,6.60
2023-04-02T14:12:41.643Z,6.39
2023-04-02T14:15:16.886Z,7.13
2023-04-02T14:17:43.134Z,7.54
2023-04-02T14:20:16.604Z,7.58
2023-04-02T14:22:50.047Z,6.74
2023-04-02T14:25:19.215Z,6.66
2023-04-02T14:28:06.969Z,6.80
2023-04-02T14:30:39.295Z,6.38
2023-04-02T14:33:14.518Z,6.29
2023-04-02T14:35:42.604Z,6.72
2023-04-02T14:38:14.974Z,6.94
2023-04-02T14:40:44.727Z,7.11
2023-04-02T14:43:11.828Z,6.36
2023-04-02T14:45:51.384Z,6.18
2023-04-02T14:48:27.949Z,6.43
2023-04-02T14:50:56.204Z,6.74
2023-04-02T14:53:37.027Z,6.87
2023-04-02T14:56:03.665Z,6.80
2023-04-02T14:58:40.581Z,6.53
2023-04-02T15:01:20.262Z,6.18
2023-04-02T15:03:52.859Z,6.55
2023-04-02T15:06:20.776Z,6.74
2023-04-02T15:09:09.256Z,6.68
2023-04-02T15:11:36.586Z,6.75
2023-04-02T15:14:13.781Z,6.52
2023-04-02T15:16:40.182Z,6.16
2023-04-02T15:19:09.968Z,5.80
2023-04-02T15:21:55.742Z,5.93
2023-04-02T15:24:41.985Z,6.23
2023-04-02T15:27:24.453Z,6.64
2023-04-02T15:30:15.154Z,6.53
2023-04-02T15:32:41.587Z,5.74
2023-04-02T15:35:16.977Z,5.44
2023-04-02T15:37:52.349Z,5.48
2023-04-02T15:40:40.151Z,5.74
2023-04-02T15:43:24.991Z,6.00
2023-04-02T15:46:11.596Z,5.98
2023-04-02T15:48:44.136Z,5.90
2023-04-02T15:51:10.531Z,5.95
2023-04-02T15:53:44.372Z,6.03
2023-04-02T15:56:25.202Z,5.75
2023-04-02T15:59:05.905Z,5.63
2023-04-02T16:01:35.380Z,5.77
2023-04-02T16:04:20.501Z,5.88
2023-04-02T16:06:52.931Z,5.77
2023-04-02T16:09:19.117Z,5.74
2023-04-02T16:15:01.329Z,5.33
2023-04-02T16:17:51.975Z,5.49
2023-04-02T16:20:22.078Z,5.53
2023-04-02T16:23:00.085Z,5.47
2023-04-02T16:25:27.585Z,5.34
2023-04-02T16:28:03.616Z,5.30
2023-04-02T16:30:49.089Z,5.21
2023-04-02T16:33:35.848Z,5.17
2023-04-02T16:36:23.899Z,5.24
2023-04-02T16:38:57.070Z,5.27
2023-04-02T16:41:29.412Z,5.15
2023-04-02T16:43:58.441Z,5.00
2023-04-02T16:53:26.459Z,4.82
2023-04-02T16:59:03.412Z,4.73
2023-04-02T17:04:44.338Z,4.56
2023-04-02T17:07:13.049Z,4.49
2023-04-02T17:09:54.586Z,4.52
2023-04-02T17:12:29.960Z,4.38
2023-04-02T17:14:59.325Z,4.36
2023-04-02T17:17:33.965Z,4.28
2023-04-02T17:42:05.447Z,3.45
2023-04-02T17:44:50.153Z,3.35
2023-04-02T17:47:20.387Z,3.22
2023-04-02T17:49:49.618Z,3.14
2023-04-02T17:52:18.236Z,3.13
2023-04-02T17:54:59.596Z,2.97
2023-04-02T17:57:44.252Z,2.86
2023-04-02T18:00:16.475Z,2.85
2023-04-02T18:03:01.452Z,2.81
2023-04-02T18:05:32.859Z,2.86
2023-04-02T18:08:25.319Z,2.77
2023-04-02T18:11:10.437Z,2.60
2023-04-02T18:13:38.578Z,2.63
2023-04-02T18:16:04.723Z,2.60
2023-04-02T18:18:51.547Z,2.57
2023-04-02T18:21:23.838Z,2.56
2023-04-02T18:24:13.740Z,2.52
2023-04-02T18:27:00.168Z,2.32
2023-04-02T18:29:45.276Z,2.28
2023-04-02T18:32:43.829Z,2.20
2023-04-02T18:35:24.811Z,2.20
2023-04-02T18:37:57.216Z,2.09
2023-04-02T18:40:42.165Z,1.95
2023-04-02T18:43:12.700Z,1.98
2023-04-02T18:45:42.997Z,1.87
2023-04-02T18:48:13.550Z,1.81
2023-04-02T18:50:39.933Z,1.77
2023-04-02T18:53:16.771Z,1.76
2023-04-02T18:55:45.457Z,1.67
2023-04-02T18:58:12.978Z,1.49
2023-04-02T19:00:39.495Z,1.37
2023-04-02T19:03:13.926Z,1.25
2023-04-02T19:05:44.476Z,1.27
2023-04-02T19:08:12.848Z,1.14
2023-04-02T19:10:39.451Z,1.10
2023-04-02T19:13:07.788Z,1.02
2023-04-02T19:15:39.532Z,1.05
2023-04-02T19:18:11.330Z,0.97
2023-04-02T19:20:41.667Z,0.90
2023-04-02T19:23:18.545Z,0.84
2023-04-02T19:25:47.809Z,0.78
2023-04-02T19:28:33.775Z,0.85
2023-04-02T19:31:11.142Z,0.82
2023-04-02T19:33:56.362Z,0.76
2023-04-02T19:36:32.050Z,0.73
2023-04-02T19:39:10.380Z,0.89
2023-04-02T19:41:41.078Z,0.63
2023-04-02T19:44:11.911Z,0.53
2023-04-02T19:46:39.402Z,0.48
2023-04-02T19:49:29.209Z,0.47
2023-04-02T19:51:57.138Z,0.43
2023-04-02T19:54:23.765Z,0.55
2023-04-02T19:56:50.061Z,0.72
2023-04-02T19:59:18.775Z,0.83
2023-04-02T20:01:45.513Z,1.04
2023-04-02T20:04:11.765Z,1.08
2023-04-02T20:06:37.984Z,1.23
2023-04-02T20:09:04.176Z,1.37
2023-04-02T20:11:30.392Z,1.32
2023-04-02T20:13:56.631Z,1.14
2023-04-02T20:16:22.923Z,1.13
2023-04-02T20:18:49.246Z,1.21
2023-04-02T20:21:15.473Z,1.06
2023-04-02T20:23:41.672Z,0.91
2023-04-02T20:26:07.959Z,0.92
2023-04-02T20:28:34.251Z,0.86
2023-04-02T20:31:06.605Z,1.01
2023-04-02T20:33:32.894Z,1.13
2023-04-02T20:36:03.193Z,1.21
2023-04-02T20:38:30.595Z,1.20
2023-04-02T20:40:57.694Z,1.03
2023-04-02T20:43:23.891Z,0.90
2023-04-02T20:45:54.080Z,0.73
2023-04-02T20:48:20.314Z,0.59
2023-04-02T20:50:46.537Z,0.45
2023-04-02T20:53:12.753Z,0.42
2023-04-02T20:55:38.952Z,0.41
2023-04-02T20:58:05.160Z,0.42
2023-04-02T21:00:31.364Z,0.44
2023-04-02T21:02:59.110Z,0.39
2023-04-02T21:05:25.348Z,0.41
2023-04-02T21:07:51.565Z,0.43
2023-04-02T21:10:17.815Z,0.46
2023-04-02T21:12:44.050Z,0.56
2023-04-02T21:15:10.284Z,0.75
2023-04-02T21:17:36.544Z,0.87
2023-04-02T21:20:02.880Z,0.97
2023-04-02T21:22:29.165Z,0.99
2023-04-02T21:24:55.388Z,1.10
2023-04-02T21:27:21.624Z,1.06
2023-04-02T21:29:47.827Z,0.93
2023-04-02T21:32:21.302Z,0.75
2023-04-02T21:34:48.061Z,0.90
2023-04-02T21:37:14.419Z,0.99
2023-04-02T21:39:41.011Z,0.46
2023-04-02T21:42:08.143Z,0.20
2023-04-02T21:44:34.958Z,0.13
2023-04-02T21:47:07.841Z,0.14
2023-04-02T21:49:34.432Z,0.41
2023-04-02T21:52:00.952Z,0.56
2023-04-02T21:54:27.468Z,0.64
2023-04-02T21:56:53.809Z,0.58
2023-04-02T21:59:22.671Z,0.72
2023-04-02T22:01:53.137Z,0.64
2023-04-02T22:04:23.175Z,0.64
2023-04-02T22:06:49.617Z,0.36
2023-04-02T22:09:18.394Z,0.52
2023-04-02T22:11:47.539Z,0.67
2023-04-02T22:14:14.016Z,0.76
2023-04-02T22:16:45.727Z,0.81
2023-04-02T22:19:20.771Z,0.84
2023-04-02T22:21:52.460Z,0.88
2023-04-02T22:24:27.464Z,0.84
2023-04-02T22:26:57.987Z,0.84
2023-04-02T22:29:32.505Z,0.85
2023-04-02T22:32:01.433Z,0.80
2023-04-02T22:34:33.425Z,0.79
2023-04-02T22:43:13.615Z,0.79
2023-04-02T22:45:45.934Z,0.81
2023-04-02T22:48:28.958Z,0.78
2023-04-02T22:53:47.646Z,0.69
2023-04-02T22:59:53.218Z,0.68
2023-04-02T23:05:47.420Z,0.69
2023-04-02T23:17:37.571Z,0.38
2023-04-02T23:20:21.396Z,0.29
2023-04-02T23:22:59.582Z,0.37
2023-04-02T23:25:31.430Z,0.39
2023-04-02T23:28:09.435Z,0.43
2023-04-02T23:31:13.445Z,0.46
2023-04-02T23:34:05.109Z,0.47
2023-04-02T23:39:37.302Z,0.46
2023-04-02T23:57:14.886Z,0.37
